createdAt,value
2023-01-06T00:01:34.821Z,95418.00
2023-01-06T00:04:03.183Z,95404.72
2023-01-06T00:06:31.578Z,95405.56
2023-01-06T00:09:03.447Z,95408.34
2023-01-06T00:11:31.776Z,95397.25
2023-01-06T00:14:00.159Z,95404.09
2023-01-06T00:16:27.144Z,95397.56
2023-01-06T00:19:00.055Z,95398.41
2023-01-06T00:21:28.271Z,95401.34
2023-01-06T00:23:56.039Z,95407.56
2023-01-06T00:26:23.557Z,95405.47
2023-01-06T00:28:57.380Z,95409.09
2023-01-06T00:31:26.488Z,95404.84
2023-01-06T00:33:57.283Z,95395.06
2023-01-06T00:36:25.515Z,95406.69
2023-01-06T00:38:53.044Z,95406.34
2023-01-06T00:41:38.904Z,95404.25
2023-01-06T00:44:06.618Z,95409.38
2023-01-06T00:46:34.275Z,95415.59
2023-01-06T00:49:05.521Z,95408.09
2023-01-06T00:51:39.285Z,95423.31
2023-01-06T00:54:13.474Z,95421.03
2023-01-06T00:56:43.554Z,95426.44
2023-01-06T00:59:12.586Z,95425.78
2023-01-06T01:01:40.617Z,95421.56
2023-01-06T01:04:08.417Z,95426.31
2023-01-06T01:06:36.551Z,95429.06
2023-01-06T01:09:06.641Z,95432.38
2023-01-06T01:11:53.175Z,95438.09
2023-01-06T01:14:21.455Z,95442.69
2023-01-06T01:16:48.456Z,95442.72
2023-01-06T01:19:16.070Z,95447.28
2023-01-06T01:21:43.750Z,95457.72
2023-01-06T01:24:11.719Z,95455.09
2023-01-06T01:26:39.806Z,95446.16
2023-01-06T01:29:07.455Z,95447.59
2023-01-06T01:31:34.485Z,95443.34
2023-01-06T01:34:02.154Z,95449.41
2023-01-06T01:36:29.777Z,95443.00
2023-01-06T01:38:58.071Z,95433.72
2023-01-06T01:41:26.874Z,95443.03
2023-01-06T01:44:01.612Z,95437.44
2023-01-06T01:46:41.362Z,95435.94
2023-01-06T01:49:26.160Z,95435.28
2023-01-06T01:51:56.682Z,95435.59
2023-01-06T01:54:32.434Z,95445.03
2023-01-06T01:57:08.959Z,95444.22
2023-01-06T01:59:38.909Z,95450.84
2023-01-06T02:02:06.305Z,95440.09
2023-01-06T02:04:37.654Z,95440.56
2023-01-06T02:07:06.904Z,95437.59
2023-01-06T02:10:05.314Z,95433.81
2023-01-06T02:12:33.058Z,95439.03
2023-01-06T02:15:00.170Z,95438.06
2023-01-06T02:17:47.233Z,95427.31
2023-01-06T02:20:58.904Z,95434.84
2023-01-06T02:24:12.915Z,95424.91
2023-01-06T02:26:50.873Z,95427.38
2023-01-06T02:30:04.258Z,95427.41
2023-01-06T02:33:21.791Z,95423.06
2023-01-06T02:36:10.774Z,95420.44
2023-01-06T02:39:09.198Z,95428.28
2023-01-06T02:41:56.073Z,95430.75
2023-01-06T02:44:48.729Z,95439.56
2023-01-06T02:47:39.263Z,95435.50
2023-01-06T02:50:42.468Z,95422.78
2023-01-06T02:53:41.231Z,95431.09
2023-01-06T02:56:09.763Z,95421.47
2023-01-06T02:58:59.976Z,95421.31
2023-01-06T03:01:33.914Z,95423.41
2023-01-06T03:04:06.008Z,95428.03
2023-01-06T03:06:36.527Z,95439.75
2023-01-06T03:09:05.336Z,95431.28
2023-01-06T03:11:39.336Z,95419.19
2023-01-06T03:14:26.483Z,95424.25
2023-01-06T03:16:55.259Z,95419.31
2023-01-06T03:19:24.345Z,95415.25
2023-01-06T03:21:52.849Z,95419.97
2023-01-06T03:24:22.897Z,95418.69
2023-01-06T03:26:52.839Z,95420.31
2023-01-06T03:29:23.423Z,95411.63
2023-01-06T03:32:23.415Z,95402.50
2023-01-06T03:35:24.966Z,95399.72
2023-01-06T03:38:41.038Z,95403.59
2023-01-06T03:41:54.398Z,95396.41
2023-01-06T03:45:03.029Z,95396.59
2023-01-06T03:48:00.375Z,95398.88
2023-01-06T03:50:37.401Z,95388.25
2023-01-06T03:53:27.744Z,95393.50
2023-01-06T03:56:26.828Z,95395.75
2023-01-06T03:58:59.375Z,95388.88
2023-01-06T04:01:27.698Z,95382.66
2023-01-06T04:03:56.753Z,95386.25
2023-01-06T04:06:27.623Z,95383.53
2023-01-06T04:08:54.750Z,95385.66
2023-01-06T04:11:40.127Z,95391.72
2023-01-06T04:14:09.079Z,95397.63
2023-01-06T04:16:36.644Z,95396.13
2023-01-06T04:19:04.258Z,95386.66
2023-01-06T04:21:32.098Z,95380.13
2023-01-06T04:23:59.100Z,95377.84
2023-01-06T04:26:26.020Z,95388.63
2023-01-06T04:28:53.059Z,95386.34
2023-01-06T04:31:20.267Z,95381.44
2023-01-06T04:33:50.440Z,95380.31
2023-01-06T04:36:17.627Z,95380.16
2023-01-06T04:38:48.957Z,95381.13
2023-01-06T04:41:16.357Z,95384.56
2023-01-06T04:43:43.330Z,95384.38
2023-01-06T04:46:10.605Z,95383.41
2023-01-06T04:48:37.904Z,95381.94
2023-01-06T04:51:08.057Z,95384.69
2023-01-06T04:53:40.958Z,95390.09
2023-01-06T04:56:11.864Z,95383.41
2023-01-06T04:58:39.597Z,95387.63
2023-01-06T05:01:12.671Z,95384.19
2023-01-06T05:03:40.813Z,95385.13
2023-01-06T05:06:11.209Z,95387.09
2023-01-06T05:08:40.302Z,95388.38
2023-01-06T05:11:12.860Z,95387.03
2023-01-06T05:13:40.319Z,95381.13
2023-01-06T05:16:24.579Z,95380.78
2023-01-06T05:18:52.254Z,95380.59
2023-01-06T05:21:19.291Z,95369.97
2023-01-06T05:23:46.647Z,95374.22
2023-01-06T05:26:22.303Z,95379.31
2023-01-06T05:28:50.064Z,95376.50
2023-01-06T05:31:17.238Z,95373.72
2023-01-06T05:33:44.571Z,95373.53
2023-01-06T05:36:15.578Z,95372.56
2023-01-06T05:38:43.104Z,95371.38
2023-01-06T05:41:10.842Z,95381.84
2023-01-06T05:43:38.356Z,95382.69
2023-01-06T05:46:11.398Z,95380.88
2023-01-06T05:48:39.783Z,95392.97
2023-01-06T05:51:14.199Z,95396.41
2023-01-06T05:53:45.101Z,95397.06
2023-01-06T05:56:15.566Z,95390.03
2023-01-06T05:58:46.665Z,95393.44
2023-01-06T06:01:22.831Z,95386.25
2023-01-06T06:03:52.567Z,95397.34
2023-01-06T06:06:21.756Z,95394.59
2023-01-06T06:08:49.365Z,95397.03
2023-01-06T06:11:19.228Z,95400.91
2023-01-06T06:13:55.087Z,95404.38
2023-01-06T06:16:27.955Z,95403.38
2023-01-06T06:18:57.861Z,95403.69
2023-01-06T06:21:29.106Z,95393.69
2023-01-06T06:23:58.302Z,95396.75
2023-01-06T06:26:25.734Z,95395.59
2023-01-06T06:28:52.894Z,95391.16
2023-01-06T06:31:29.113Z,95384.94
2023-01-06T06:33:59.608Z,95378.06
2023-01-06T06:36:27.752Z,95390.38
2023-01-06T06:38:55.525Z,95387.09
2023-01-06T06:41:24.223Z,95381.06
2023-01-06T06:43:52.203Z,95392.50
2023-01-06T06:46:20.631Z,95388.25
2023-01-06T06:48:49.408Z,95387.47
2023-01-06T06:51:19.220Z,95385.81
2023-01-06T06:53:46.868Z,95387.59
2023-01-06T06:56:16.488Z,95382.09
2023-01-06T06:58:43.499Z,95381.78
2023-01-06T07:01:15.657Z,95381.81
2023-01-06T07:03:43.296Z,95387.09
2023-01-06T07:06:14.636Z,95384.06
2023-01-06T07:08:46.938Z,95390.81
2023-01-06T07:11:14.593Z,95389.22
2023-01-06T07:13:41.857Z,95394.47
2023-01-06T07:16:09.260Z,95396.78
2023-01-06T07:18:37.251Z,95393.69
2023-01-06T07:21:05.933Z,95395.47
2023-01-06T07:23:33.142Z,95394.66
2023-01-06T07:26:02.377Z,95395.47
2023-01-06T07:28:32.125Z,95395.31
2023-01-06T07:31:00.254Z,95387.78
2023-01-06T07:33:29.407Z,95389.06
2023-01-06T07:35:57.477Z,95390.69
2023-01-06T07:38:25.373Z,95388.53
2023-01-06T07:40:52.774Z,95385.38
2023-01-06T07:43:19.842Z,95381.25
2023-01-06T07:45:48.287Z,95386.28
2023-01-06T07:48:17.553Z,95394.91
2023-01-06T07:50:45.378Z,95392.25
2023-01-06T07:53:12.697Z,95386.81
2023-01-06T07:55:40.199Z,95388.41
2023-01-06T07:58:09.224Z,95389.78
2023-01-06T08:00:36.960Z,95390.72
2023-01-06T08:03:06.629Z,95392.31
2023-01-06T08:05:38.126Z,95400.09
2023-01-06T08:08:05.493Z,95395.81
2023-01-06T08:10:32.510Z,95400.81
2023-01-06T08:12:59.680Z,95396.63
2023-01-06T08:15:26.683Z,95394.94
2023-01-06T08:17:55.250Z,95386.22
2023-01-06T08:20:23.404Z,95389.75
2023-01-06T08:22:50.474Z,95387.25
2023-01-06T08:25:17.502Z,95382.94
2023-01-06T08:27:44.516Z,95393.34
2023-01-06T08:30:12.190Z,95386.38
2023-01-06T08:32:39.227Z,95386.28
2023-01-06T08:35:06.945Z,95382.31
2023-01-06T08:37:34.162Z,95382.59
2023-01-06T08:40:01.185Z,95382.22
2023-01-06T08:42:28.325Z,95379.03
2023-01-06T08:44:55.263Z,95377.69
2023-01-06T08:47:22.168Z,95384.19
2023-01-06T08:49:49.151Z,95384.31
2023-01-06T08:52:16.379Z,95381.94
2023-01-06T08:54:43.391Z,95383.81
2023-01-06T08:57:11.192Z,95382.28
2023-01-06T08:59:38.155Z,95398.91
2023-01-06T09:02:05.460Z,95402.63
2023-01-06T09:04:32.500Z,95399.06
2023-01-06T09:06:59.444Z,95410.31
2023-01-06T09:09:26.383Z,95404.09
2023-01-06T09:11:53.351Z,95412.06
2023-01-06T09:14:20.474Z,95404.06
2023-01-06T09:16:48.719Z,95407.38
2023-01-06T09:19:16.699Z,95412.31
2023-01-06T09:21:46.140Z,95411.59
2023-01-06T09:24:14.558Z,95417.94
2023-01-06T09:26:42.133Z,95414.19
2023-01-06T09:29:09.213Z,95412.25
2023-01-06T09:31:36.588Z,95413.75
2023-01-06T09:34:04.213Z,95405.88
2023-01-06T09:36:32.774Z,95411.03
2023-01-06T09:38:59.974Z,95412.09
2023-01-06T09:41:58.085Z,95399.59
2023-01-06T09:44:46.979Z,95404.50
2023-01-06T09:47:20.082Z,95403.16
2023-01-06T09:49:59.405Z,95399.56
2023-01-06T09:53:12.487Z,95395.78
2023-01-06T09:55:45.224Z,95397.22
2023-01-06T09:58:16.634Z,95392.00
2023-01-06T10:00:53.607Z,95386.31
2023-01-06T10:03:24.854Z,95383.75
2023-01-06T10:06:32.202Z,95375.25
2023-01-06T10:09:31.575Z,95369.78
2023-01-06T10:12:24.840Z,95363.88
2023-01-06T10:15:28.899Z,95355.97
2023-01-06T10:18:32.817Z,95347.50
2023-01-06T10:21:42.959Z,95350.97
2023-01-06T10:24:48.131Z,95343.31
2023-01-06T10:27:40.255Z,95341.88
2023-01-06T10:30:34.021Z,95330.16
2023-01-06T10:33:05.351Z,95324.69
2023-01-06T10:35:33.294Z,95324.69
2023-01-06T10:38:07.263Z,95326.50
2023-01-06T10:40:36.484Z,95314.53
2023-01-06T10:43:08.726Z,95306.06
2023-01-06T10:45:42.597Z,95306.25
2023-01-06T10:48:19.174Z,95306.88
2023-01-06T10:50:47.067Z,95305.84
2023-01-06T10:53:16.365Z,95308.50
2023-01-06T10:56:01.811Z,95309.13
2023-01-06T10:58:46.532Z,95307.47
2023-01-06T11:01:27.678Z,95305.81
2023-01-06T11:04:12.945Z,95302.19
2023-01-06T11:06:46.287Z,95293.84
2023-01-06T11:09:44.723Z,95293.03
2023-01-06T11:12:27.267Z,95293.03
2023-01-06T11:15:02.301Z,95288.97
2023-01-06T11:17:30.323Z,95293.84
2023-01-06T11:20:32.533Z,95300.13
2023-01-06T11:23:23.253Z,95293.63
2023-01-06T11:26:20.172Z,95282.41
2023-01-06T11:28:49.858Z,95283.00
2023-01-06T11:31:28.380Z,95290.94
2023-01-06T11:34:01.561Z,95295.75
2023-01-06T11:36:32.278Z,95291.09
2023-01-06T11:39:01.318Z,95291.50
2023-01-06T11:41:37.338Z,95292.91
2023-01-06T11:44:20.077Z,95291.94
2023-01-06T11:46:52.245Z,95283.63
2023-01-06T11:49:30.450Z,95295.41
2023-01-06T11:52:36.578Z,95280.16
2023-01-06T11:55:22.229Z,95248.47
2023-01-06T11:58:04.345Z,95264.84
2023-01-06T12:00:52.398Z,95269.09
2023-01-06T12:03:26.973Z,95262.56
2023-01-06T12:06:12.988Z,95254.00
2023-01-06T12:09:18.063Z,95256.25
2023-01-06T12:11:53.675Z,95249.88
2023-01-06T12:14:36.147Z,95251.25
2023-01-06T12:17:41.166Z,95244.53
2023-01-06T12:20:24.729Z,95242.03
2023-01-06T12:23:01.444Z,95243.06
2023-01-06T12:25:49.858Z,95239.22
2023-01-06T12:28:18.331Z,95235.97
2023-01-06T12:31:00.644Z,95237.59
2023-01-06T12:33:48.025Z,95234.38
2023-01-06T12:36:47.219Z,95231.38
2023-01-06T12:39:28.106Z,95232.41
2023-01-06T12:42:11.036Z,95225.94
2023-01-06T12:45:07.885Z,95219.88
2023-01-06T12:47:43.386Z,95228.81
2023-01-06T12:50:19.772Z,95228.88
2023-01-06T12:53:19.678Z,95223.63
2023-01-06T12:56:52.290Z,95217.56
2023-01-06T12:59:45.353Z,95211.31
2023-01-06T13:03:02.673Z,95205.41
2023-01-06T13:06:00.685Z,95213.13
2023-01-06T13:09:44.515Z,95206.22
2023-01-06T13:12:53.869Z,95196.09
2023-01-06T13:15:29.002Z,95200.75
2023-01-06T13:18:24.937Z,95195.69
2023-01-06T13:21:09.257Z,95199.97
2023-01-06T13:24:11.914Z,95204.19
2023-01-06T13:26:47.374Z,95203.41
2023-01-06T13:29:38.051Z,95200.16
2023-01-06T13:32:51.100Z,95199.97
2023-01-06T13:35:47.129Z,95194.72
2023-01-06T13:38:54.920Z,95197.38
2023-01-06T13:41:35.994Z,95195.34
2023-01-06T13:44:06.123Z,95196.38
2023-01-06T13:46:34.898Z,95204.50
2023-01-06T13:49:05.207Z,95205.13
2023-01-06T13:51:36.517Z,95210.22
2023-01-06T13:54:03.752Z,95203.75
2023-01-06T13:56:33.849Z,95211.66
2023-01-06T13:59:20.556Z,95206.38
2023-01-06T14:01:48.474Z,95208.19
2023-01-06T14:04:36.779Z,95211.84
2023-01-06T14:07:05.069Z,95208.84
2023-01-06T14:09:40.259Z,95206.81
2023-01-06T14:12:18.950Z,95202.97
2023-01-06T14:15:06.420Z,95209.88
2023-01-06T14:17:42.659Z,95211.28
2023-01-06T14:20:32.233Z,95215.59
2023-01-06T14:23:25.207Z,95221.69
2023-01-06T14:25:56.203Z,95223.31
2023-01-06T14:28:33.102Z,95226.34
2023-01-06T14:31:38.875Z,95226.16
2023-01-06T14:34:11.835Z,95219.50
2023-01-06T14:36:39.809Z,95224.53
2023-01-06T14:39:20.416Z,95233.25
2023-01-06T14:42:13.309Z,95223.53
2023-01-06T14:44:47.192Z,95222.09
2023-01-06T14:47:29.692Z,95217.03
2023-01-06T14:50:09.060Z,95218.22
2023-01-06T14:52:41.908Z,95218.03
2023-01-06T14:55:14.436Z,95210.50
2023-01-06T14:57:41.417Z,95213.75
2023-01-06T15:00:14.609Z,95212.94
2023-01-06T15:02:57.177Z,95213.34
2023-01-06T15:05:32.600Z,95211.69
2023-01-06T15:08:03.981Z,95215.31
2023-01-06T15:10:42.302Z,95219.97
2023-01-06T15:13:31.146Z,95215.13
2023-01-06T15:16:17.315Z,95213.69
2023-01-06T15:18:46.944Z,95211.25
2023-01-06T15:21:14.160Z,95208.00
2023-01-06T15:23:50.722Z,95216.91
2023-01-06T15:26:29.066Z,95212.66
2023-01-06T15:29:14.336Z,95215.50
2023-01-06T15:31:41.954Z,95217.91
2023-01-06T15:34:40.656Z,95220.94
2023-01-06T15:37:18.104Z,95227.03
2023-01-06T15:39:45.727Z,95226.19
2023-01-06T15:42:15.784Z,95233.28
2023-01-06T15:45:01.273Z,95241.41
2023-01-06T15:47:44.104Z,95232.69
2023-01-06T15:50:23.811Z,95243.81
2023-01-06T15:53:00.045Z,95233.28
2023-01-06T15:55:34.510Z,95237.56
2023-01-06T15:58:16.881Z,95227.03
2023-01-06T16:00:49.819Z,95229.03
2023-01-06T16:03:21.091Z,95242.19
2023-01-06T16:05:51.066Z,95242.19
2023-01-06T16:08:29.436Z,95244.03
2023-01-06T16:11:38.144Z,95244.03
2023-01-06T16:14:07.294Z,95245.25
2023-01-06T16:16:40.256Z,95254.13
2023-01-06T16:19:15.044Z,95250.09
2023-01-06T16:21:44.427Z,95244.00
2023-01-06T16:24:31.957Z,95258.16
2023-01-06T16:27:05.411Z,95256.56
2023-01-06T16:29:38.355Z,95252.47
2023-01-06T16:32:28.138Z,95256.13
2023-01-06T16:35:01.455Z,95265.41
2023-01-06T16:37:34.031Z,95262.78
2023-01-06T16:40:01.348Z,95260.97
2023-01-06T16:42:39.953Z,95270.47
2023-01-06T16:45:12.465Z,95276.94
2023-01-06T16:47:43.162Z,95284.03
2023-01-06T16:50:38.434Z,95279.16
2023-01-06T16:53:18.618Z,95274.91
2023-01-06T16:55:51.303Z,95274.72
2023-01-06T16:58:25.694Z,95276.34
2023-01-06T17:00:54.590Z,95275.50
2023-01-06T17:03:25.355Z,95277.16
2023-01-06T17:05:54.354Z,95280.41
2023-01-06T17:08:34.220Z,95282.19
2023-01-06T17:11:10.683Z,95281.41
2023-01-06T17:13:39.966Z,95279.41
2023-01-06T17:16:17.101Z,95286.88
2023-01-06T17:18:51.159Z,95295.56
2023-01-06T17:21:32.316Z,95287.66
2023-01-06T17:24:13.061Z,95288.06
2023-01-06T17:26:41.254Z,95286.03
2023-01-06T17:29:16.247Z,95289.88
2023-01-06T17:31:49.485Z,95291.72
2023-01-06T17:34:24.807Z,95291.28
2023-01-06T17:36:55.698Z,95288.44
2023-01-06T17:39:30.587Z,95297.31
2023-01-06T17:42:07.283Z,95304.16
2023-01-06T17:44:52.201Z,95302.09
2023-01-06T17:47:19.979Z,95299.69
2023-01-06T17:49:54.973Z,95308.56
2023-01-06T17:52:32.095Z,95302.50
2023-01-06T17:55:42.969Z,95308.97
2023-01-06T17:58:23.215Z,95309.13
2023-01-06T18:00:50.297Z,95313.59
2023-01-06T18:03:26.429Z,95318.84
2023-01-06T18:06:00.583Z,95320.91
2023-01-06T18:08:28.424Z,95321.50
2023-01-06T18:11:23.101Z,95316.22
2023-01-06T18:13:53.680Z,95319.44
2023-01-06T18:16:33.580Z,95317.81
2023-01-06T18:19:24.393Z,95322.25
2023-01-06T18:21:52.531Z,95327.88
2023-01-06T18:24:46.957Z,95328.09
2023-01-06T18:27:26.339Z,95330.28
2023-01-06T18:30:00.494Z,95330.28
2023-01-06T18:32:33.440Z,95333.53
2023-01-06T18:35:25.138Z,95337.97
2023-01-06T18:37:52.351Z,95338.56
2023-01-06T18:40:23.908Z,95351.13
2023-01-06T18:42:53.568Z,95352.75
2023-01-06T18:45:27.664Z,95359.00
2023-01-06T18:48:34.371Z,95351.31
2023-01-06T18:51:03.350Z,95359.00
2023-01-06T18:53:49.897Z,95369.72
2023-01-06T18:56:21.189Z,95366.28
2023-01-06T18:58:52.547Z,95368.09
2023-01-06T19:01:29.694Z,95369.94
2023-01-06T19:04:03.644Z,95358.56
2023-01-06T19:06:57.062Z,95374.56
2023-01-06T19:09:48.188Z,95372.91
2023-01-06T19:12:33.665Z,95367.06
2023-01-06T19:15:24.972Z,95369.84
2023-01-06T19:17:53.933Z,95366.44
2023-01-06T19:20:28.786Z,95366.22
2023-01-06T19:22:56.980Z,95368.06
2023-01-06T19:25:33.394Z,95367.22
2023-01-06T19:28:16.126Z,95370.84
2023-01-06T19:30:56.627Z,95369.41
2023-01-06T19:33:35.849Z,95386.19
2023-01-06T19:36:05.466Z,95383.97
2023-01-06T19:38:38.019Z,95383.97
2023-01-06T19:41:31.933Z,95389.53
2023-01-06T19:44:10.602Z,95383.84
2023-01-06T19:46:42.246Z,95381.63
2023-01-06T19:49:23.462Z,95389.50
2023-01-06T19:51:54.248Z,95396.75
2023-01-06T19:54:33.978Z,95393.94
2023-01-06T19:57:02.464Z,95393.31
2023-01-06T19:59:35.603Z,95394.31
2023-01-06T20:02:21.396Z,95389.25
2023-01-06T20:04:48.475Z,95393.69
2023-01-06T20:07:15.499Z,95398.50
2023-01-06T20:09:42.647Z,95390.00
2023-01-06T20:12:09.828Z,95394.63
2023-01-06T20:14:36.858Z,95394.19
2023-01-06T20:17:04.027Z,95393.53
2023-01-06T20:19:31.148Z,95391.91
2023-01-06T20:21:58.154Z,95394.75
2023-01-06T20:24:25.235Z,95403.81
2023-01-06T20:26:52.254Z,95399.56
2023-01-06T20:29:19.387Z,95402.19
2023-01-06T20:31:46.348Z,95407.44
2023-01-06T20:34:13.481Z,95410.44
2023-01-06T20:36:40.982Z,95409.63
2023-01-06T20:39:08.072Z,95409.00
2023-01-06T20:41:35.355Z,95413.63
2023-01-06T20:44:02.280Z,95418.44
2023-01-06T20:46:29.296Z,95420.41
2023-01-06T20:48:56.662Z,95416.00
2023-01-06T20:51:23.846Z,95413.19
2023-01-06T20:53:51.572Z,95411.56
2023-01-06T20:56:18.611Z,95402.88
2023-01-06T20:58:45.734Z,95398.78
2023-01-06T21:01:13.233Z,95405.22
2023-01-06T21:03:40.302Z,95403.16
2023-01-06T21:06:07.962Z,95400.69
2023-01-06T21:08:35.039Z,95399.06
2023-01-06T21:11:02.095Z,95405.50
2023-01-06T21:13:29.087Z,95411.78
2023-01-06T21:15:56.031Z,95400.63
2023-01-06T21:18:23.043Z,95399.81
2023-01-06T21:20:50.112Z,95409.84
2023-01-06T21:23:17.223Z,95409.84
2023-01-06T21:25:44.283Z,95412.47
2023-01-06T21:28:11.249Z,95409.06
2023-01-06T21:30:38.421Z,95413.31
2023-01-06T21:33:05.410Z,95411.69
2023-01-06T21:35:32.549Z,95419.38
2023-01-06T21:37:59.989Z,95421.19
2023-01-06T21:40:27.209Z,95430.06
2023-01-06T21:43:09.003Z,95423.19
2023-01-06T21:45:41.747Z,95423.56
2023-01-06T21:48:10.697Z,95421.09
2023-01-06T21:50:42.320Z,95421.28
2023-01-06T21:53:11.649Z,95415.41
2023-01-06T21:55:38.899Z,95423.28
2023-01-06T21:58:05.853Z,95420.19
2023-01-06T22:00:33.023Z,95417.75
2023-01-06T22:03:00.152Z,95430.09
2023-01-06T22:05:27.833Z,95427.47
2023-01-06T22:07:54.959Z,95426.63
2023-01-06T22:10:24.581Z,95427.63
2023-01-06T22:12:53.827Z,95429.25
2023-01-06T22:15:21.826Z,95432.06
2023-01-06T22:17:50.002Z,95430.44
2023-01-06T22:20:17.809Z,95436.53
2023-01-06T22:22:45.840Z,95438.69
2023-01-06T22:25:13.085Z,95434.44
2023-01-06T22:27:40.206Z,95434.44
2023-01-06T22:30:08.640Z,95435.44
2023-01-06T22:32:44.321Z,95438.84
2023-01-06T22:35:13.908Z,95444.28
2023-01-06T22:37:41.794Z,95437.41
2023-01-06T22:40:11.019Z,95443.66
2023-01-06T22:42:38.181Z,95441.84
2023-01-06T22:45:06.244Z,95441.84
2023-01-06T22:47:33.322Z,95451.38
2023-01-06T22:50:01.474Z,95447.28
2023-01-06T22:52:29.049Z,95444.66
2023-01-06T22:54:56.136Z,95448.91
2023-01-06T22:57:23.225Z,95448.91
2023-01-06T22:59:50.308Z,95449.09
2023-01-06T23:02:17.527Z,95444.66
2023-01-06T23:04:44.550Z,95442.03
2023-01-06T23:07:11.597Z,95445.66
2023-01-06T23:09:38.525Z,95449.91
2023-01-06T23:12:06.126Z,95447.28
2023-01-06T23:14:33.087Z,95448.91
2023-01-06T23:17:00.111Z,95445.66
2023-01-06T23:19:27.444Z,95446.66
2023-01-06T23:21:54.643Z,95449.28
2023-01-06T23:24:21.563Z,95445.00
2023-01-06T23:26:48.714Z,95443.38
2023-01-06T23:29:15.889Z,95442.59
2023-01-06T23:31:45.825Z,95449.47
2023-01-06T23:34:17.278Z,95448.44
2023-01-06T23:36:45.469Z,95450.25
2023-01-06T23:39:16.907Z,95451.25
2023-01-06T23:41:44.754Z,95443.38
2023-01-06T23:44:15.400Z,95445.41
2023-01-06T23:46:43.353Z,95435.69
2023-01-06T23:49:13.475Z,95436.69
2023-01-06T23:51:41.173Z,95429.81
2023-01-06T23:54:10.279Z,95428.38
2023-01-06T23:56:38.248Z,95429.34
2023-01-06T23:59:07.557Z,95434.59
